CNX7 weather

Port Stanton/Sparrow Lake Seaplane Base
Ontario, Canada

Public forecast

Using degrees Celsius for public forecast. Weather courtesy of forecast.io.

METAR (pilot weather report)

Closest report is Muskoka Airport, 11.5 nm (21.4 km) NNE. Retrieved 2019/05/22 06:00 UTC (59 minutes ago):

CYQA 220600Z AUTO 00000KT 9SM CLR 03/02 A3020 RMK SLP235

TAF (pilot weather forecast)

Forecast is more than 6 hours old.

Closest forecast is Muskoka Airport, 11.5 nm (21.4 km) NNE. Retrieved 2019/05/21 20:00 UTC (11 hours ago):

TAF CYQA 211938Z 2120/2202 32010G20KT P6SM SCT060 BECMG 2122/2124 32008KT FM220100 VRB03KT P6SM SKC RMK FCST BASED ON AUTO OBS. NXT FCST WILL BE ISSUED AT 221145Z